sensor_id;sensor_type;location;lat;lon;timestamp;P1;durP1;ratioP1;P2;durP2;ratioP2
19804;SDS011;10062;51.052;13.756;2023-02-27T00:01:37;6.63;;;3.00;;
19804;SDS011;10062;51.052;13.756;2023-02-27T00:04:10;6.40;;;2.50;;
19804;SDS011;10062;51.052;13.756;2023-02-27T00:06:41;9.30;;;2.60;;
19804;SDS011;10062;51.052;13.756;2023-02-27T00:09:13;9.03;;;3.07;;
19804;SDS011;10062;51.052;13.756;2023-02-27T00:11:45;5.70;;;2.27;;
19804;SDS011;10062;51.052;13.756;2023-02-27T00:14:16;7.00;;;2.33;;
19804;SDS011;10062;51.052;13.756;2023-02-27T00:16:48;8.50;;;2.37;;
19804;SDS011;10062;51.052;13.756;2023-02-27T00:19:21;6.47;;;2.47;;
19804;SDS011;10062;51.052;13.756;2023-02-27T00:21:53;4.77;;;2.40;;
19804;SDS011;10062;51.052;13.756;2023-02-27T00:24:24;7.90;;;3.10;;
19804;SDS011;10062;51.052;13.756;2023-02-27T00:26:56;8.37;;;2.10;;
19804;SDS011;10062;51.052;13.756;2023-02-27T00:29:28;4.73;;;2.07;;
19804;SDS011;10062;51.052;13.756;2023-02-27T00:31:59;7.90;;;2.10;;
19804;SDS011;10062;51.052;13.756;2023-02-27T00:34:32;6.53;;;2.60;;
19804;SDS011;10062;51.052;13.756;2023-02-27T00:37:04;7.10;;;3.13;;
19804;SDS011;10062;51.052;13.756;2023-02-27T00:39:36;5.77;;;2.63;;
19804;SDS011;10062;51.052;13.756;2023-02-27T00:42:07;7.73;;;2.20;;
19804;SDS011;10062;51.052;13.756;2023-02-27T00:44:39;5.93;;;2.57;;
19804;SDS011;10062;51.052;13.756;2023-02-27T00:47:10;3.40;;;1.83;;
19804;SDS011;10062;51.052;13.756;2023-02-27T00:49:44;5.00;;;2.43;;
19804;SDS011;10062;51.052;13.756;2023-02-27T00:52:16;6.03;;;2.13;;
19804;SDS011;10062;51.052;13.756;2023-02-27T00:54:47;7.20;;;2.50;;
19804;SDS011;10062;51.052;13.756;2023-02-27T00:57:19;3.70;;;2.33;;
19804;SDS011;10062;51.052;13.756;2023-02-27T00:59:53;5.23;;;2.17;;
19804;SDS011;10062;51.052;13.756;2023-02-27T01:02:25;5.00;;;2.10;;
19804;SDS011;10062;51.052;13.756;2023-02-27T01:05:00;9.40;;;2.73;;
19804;SDS011;10062;51.052;13.756;2023-02-27T01:07:33;3.23;;;2.03;;
19804;SDS011;10062;51.052;13.756;2023-02-27T01:10:06;8.37;;;2.47;;
19804;SDS011;10062;51.052;13.756;2023-02-27T01:12:41;5.40;;;2.10;;
19804;SDS011;10062;51.052;13.756;2023-02-27T01:15:13;4.13;;;1.83;;
19804;SDS011;10062;51.052;13.756;2023-02-27T01:17:45;4.73;;;2.23;;
19804;SDS011;10062;51.052;13.756;2023-02-27T01:20:19;5.80;;;1.83;;
19804;SDS011;10062;51.052;13.756;2023-02-27T01:22:51;4.23;;;1.90;;
19804;SDS011;10062;51.052;13.756;2023-02-27T01:25:23;10.43;;;2.53;;
19804;SDS011;10062;51.052;13.756;2023-02-27T01:27:54;5.63;;;2.40;;
19804;SDS011;10062;51.052;13.756;2023-02-27T01:30:26;7.20;;;2.50;;
19804;SDS011;10062;51.052;13.756;2023-02-27T01:32:58;4.87;;;1.90;;
19804;SDS011;10062;51.052;13.756;2023-02-27T01:35:31;7.43;;;2.07;;
19804;SDS011;10062;51.052;13.756;2023-02-27T01:38:02;7.40;;;2.43;;
19804;SDS011;10062;51.052;13.756;2023-02-27T01:40:35;5.73;;;2.53;;
19804;SDS011;10062;51.052;13.756;2023-02-27T01:43:08;8.37;;;2.70;;
19804;SDS011;10062;51.052;13.756;2023-02-27T01:45:44;4.10;;;1.93;;
19804;SDS011;10062;51.052;13.756;2023-02-27T01:48:18;4.60;;;2.67;;
19804;SDS011;10062;51.052;13.756;2023-02-27T01:50:55;3.63;;;2.17;;
19804;SDS011;10062;51.052;13.756;2023-02-27T01:53:31;6.03;;;2.30;;
19804;SDS011;10062;51.052;13.756;2023-02-27T01:56:06;4.93;;;1.93;;
19804;SDS011;10062;51.052;13.756;2023-02-27T01:58:41;6.63;;;2.30;;
19804;SDS011;10062;51.052;13.756;2023-02-27T02:01:14;5.00;;;2.20;;
19804;SDS011;10062;51.052;13.756;2023-02-27T02:03:49;7.50;;;2.47;;
19804;SDS011;10062;51.052;13.756;2023-02-27T02:06:27;5.33;;;2.10;;
19804;SDS011;10062;51.052;13.756;2023-02-27T02:09:00;7.00;;;2.00;;
19804;SDS011;10062;51.052;13.756;2023-02-27T02:11:33;5.47;;;2.33;;
19804;SDS011;10062;51.052;13.756;2023-02-27T02:14:05;5.50;;;1.90;;
19804;SDS011;10062;51.052;13.756;2023-02-27T02:16:46;4.43;;;2.00;;
19804;SDS011;10062;51.052;13.756;2023-02-27T02:23:07;6.00;;;2.63;;
19804;SDS011;10062;51.052;13.756;2023-02-27T02:26:13;5.67;;;2.17;;
19804;SDS011;10062;51.052;13.756;2023-02-27T02:29:07;3.67;;;2.33;;
19804;SDS011;10062;51.052;13.756;2023-02-27T02:32:10;5.87;;;2.60;;
19804;SDS011;10062;51.052;13.756;2023-02-27T02:38:33;6.90;;;2.70;;
19804;SDS011;10062;51.052;13.756;2023-02-27T02:41:24;5.23;;;2.37;;
19804;SDS011;10062;51.052;13.756;2023-02-27T02:44:06;6.23;;;2.30;;
19804;SDS011;10062;51.052;13.756;2023-02-27T02:46:50;6.33;;;2.00;;
19804;SDS011;10062;51.052;13.756;2023-02-27T02:49:32;7.30;;;2.93;;
19804;SDS011;10062;51.052;13.756;2023-02-27T02:52:12;4.90;;;2.53;;
19804;SDS011;10062;51.052;13.756;2023-02-27T02:54:55;6.47;;;2.27;;
19804;SDS011;10062;51.052;13.756;2023-02-27T02:57:32;9.47;;;2.37;;
19804;SDS011;10062;51.052;13.756;2023-02-27T03:00:11;7.00;;;2.30;;
19804;SDS011;10062;51.052;13.756;2023-02-27T03:02:46;8.03;;;2.70;;
19804;SDS011;10062;51.052;13.756;2023-02-27T03:05:23;6.13;;;2.20;;
19804;SDS011;10062;51.052;13.756;2023-02-27T03:07:58;6.83;;;2.43;;
19804;SDS011;10062;51.052;13.756;2023-02-27T03:10:35;7.17;;;2.47;;
19804;SDS011;10062;51.052;13.756;2023-02-27T03:13:14;6.30;;;2.87;;
19804;SDS011;10062;51.052;13.756;2023-02-27T03:15:53;5.77;;;2.47;;
19804;SDS011;10062;51.052;13.756;2023-02-27T03:18:31;3.67;;;2.10;;
19804;SDS011;10062;51.052;13.756;2023-02-27T03:21:06;5.17;;;2.40;;
19804;SDS011;10062;51.052;13.756;2023-02-27T03:23:45;10.33;;;2.40;;
19804;SDS011;10062;51.052;13.756;2023-02-27T03:26:21;6.20;;;2.33;;
19804;SDS011;10062;51.052;13.756;2023-02-27T03:28:56;6.77;;;2.63;;
19804;SDS011;10062;51.052;13.756;2023-02-27T03:31:32;4.70;;;2.00;;
19804;SDS011;10062;51.052;13.756;2023-02-27T03:34:10;6.13;;;3.03;;
19804;SDS011;10062;51.052;13.756;2023-02-27T03:36:48;5.13;;;2.97;;
19804;SDS011;10062;51.052;13.756;2023-02-27T03:39:31;6.07;;;3.13;;
19804;SDS011;10062;51.052;13.756;2023-02-27T03:42:17;4.77;;;2.40;;
19804;SDS011;10062;51.052;13.756;2023-02-27T03:45:17;6.60;;;2.70;;
19804;SDS011;10062;51.052;13.756;2023-02-27T03:47:55;5.13;;;2.00;;
19804;SDS011;10062;51.052;13.756;2023-02-27T03:50:27;4.90;;;2.27;;
19804;SDS011;10062;51.052;13.756;2023-02-27T03:52:58;6.53;;;2.47;;
19804;SDS011;10062;51.052;13.756;2023-02-27T03:55:31;5.10;;;2.23;;
19804;SDS011;10062;51.052;13.756;2023-02-27T03:58:07;7.23;;;2.40;;
19804;SDS011;10062;51.052;13.756;2023-02-27T04:00:39;3.37;;;2.37;;
19804;SDS011;10062;51.052;13.756;2023-02-27T04:03:11;6.40;;;3.03;;
19804;SDS011;10062;51.052;13.756;2023-02-27T04:05:43;6.27;;;2.23;;
19804;SDS011;10062;51.052;13.756;2023-02-27T04:08:31;5.70;;;2.23;;
19804;SDS011;10062;51.052;13.756;2023-02-27T04:11:18;8.13;;;3.63;;
19804;SDS011;10062;51.052;13.756;2023-02-27T04:14:11;4.73;;;2.33;;
19804;SDS011;10062;51.052;13.756;2023-02-27T04:17:06;3.50;;;2.10;;
19804;SDS011;10062;51.052;13.756;2023-02-27T04:20:08;4.90;;;2.50;;
19804;SDS011;10062;51.052;13.756;2023-02-27T04:22:48;7.80;;;2.93;;
19804;SDS011;10062;51.052;13.756;2023-02-27T04:25:26;10.73;;;3.43;;
19804;SDS011;10062;51.052;13.756;2023-02-27T04:28:10;6.77;;;2.60;;
19804;SDS011;10062;51.052;13.756;2023-02-27T04:30:51;5.17;;;2.50;;
19804;SDS011;10062;51.052;13.756;2023-02-27T04:33:32;9.10;;;3.00;;
19804;SDS011;10062;51.052;13.756;2023-02-27T04:36:13;9.87;;;3.33;;
19804;SDS011;10062;51.052;13.756;2023-02-27T04:38:53;6.13;;;3.00;;
19804;SDS011;10062;51.052;13.756;2023-02-27T04:41:32;11.43;;;2.70;;
19804;SDS011;10062;51.052;13.756;2023-02-27T04:44:07;4.50;;;2.40;;
19804;SDS011;10062;51.052;13.756;2023-02-27T04:46:43;10.13;;;3.30;;
19804;SDS011;10062;51.052;13.756;2023-02-27T04:49:17;5.93;;;2.60;;
19804;SDS011;10062;51.052;13.756;2023-02-27T04:51:54;5.73;;;2.77;;
19804;SDS011;10062;51.052;13.756;2023-02-27T04:54:29;4.77;;;2.57;;
19804;SDS011;10062;51.052;13.756;2023-02-27T04:57:04;5.70;;;3.20;;
19804;SDS011;10062;51.052;13.756;2023-02-27T04:59:41;9.40;;;3.70;;
19804;SDS011;10062;51.052;13.756;2023-02-27T05:02:20;6.30;;;3.00;;
19804;SDS011;10062;51.052;13.756;2023-02-27T05:04:54;8.03;;;3.10;;
19804;SDS011;10062;51.052;13.756;2023-02-27T05:07:32;4.43;;;2.27;;
19804;SDS011;10062;51.052;13.756;2023-02-27T05:10:07;3.97;;;2.57;;
19804;SDS011;10062;51.052;13.756;2023-02-27T05:12:46;7.20;;;3.07;;
19804;SDS011;10062;51.052;13.756;2023-02-27T05:15:21;9.23;;;3.13;;
19804;SDS011;10062;51.052;13.756;2023-02-27T05:17:59;6.87;;;3.57;;
19804;SDS011;10062;51.052;13.756;2023-02-27T05:20:34;9.63;;;3.97;;
19804;SDS011;10062;51.052;13.756;2023-02-27T05:23:19;7.17;;;3.40;;
19804;SDS011;10062;51.052;13.756;2023-02-27T05:25:56;8.57;;;4.40;;
19804;SDS011;10062;51.052;13.756;2023-02-27T05:28:32;6.63;;;3.93;;
19804;SDS011;10062;51.052;13.756;2023-02-27T05:31:09;7.87;;;3.67;;
19804;SDS011;10062;51.052;13.756;2023-02-27T05:33:50;5.93;;;3.50;;
19804;SDS011;10062;51.052;13.756;2023-02-27T05:36:27;13.27;;;4.57;;
19804;SDS011;10062;51.052;13.756;2023-02-27T05:39:04;10.93;;;3.97;;
19804;SDS011;10062;51.052;13.756;2023-02-27T05:41:39;8.57;;;3.77;;
19804;SDS011;10062;51.052;13.756;2023-02-27T05:44:16;7.10;;;4.03;;
19804;SDS011;10062;51.052;13.756;2023-02-27T05:46:52;22.37;;;10.73;;
19804;SDS011;10062;51.052;13.756;2023-02-27T05:49:28;15.13;;;7.73;;
19804;SDS011;10062;51.052;13.756;2023-02-27T05:52:06;6.60;;;4.37;;
19804;SDS011;10062;51.052;13.756;2023-02-27T05:55:01;6.70;;;3.20;;
19804;SDS011;10062;51.052;13.756;2023-02-27T06:05:36;6.33;;;2.70;;
19804;SDS011;10062;51.052;13.756;2023-02-27T06:08:10;5.77;;;3.00;;
19804;SDS011;10062;51.052;13.756;2023-02-27T06:10:41;8.40;;;2.77;;
19804;SDS011;10062;51.052;13.756;2023-02-27T06:13:13;6.90;;;2.87;;
19804;SDS011;10062;51.052;13.756;2023-02-27T06:15:46;7.73;;;2.80;;
19804;SDS011;10062;51.052;13.756;2023-02-27T06:18:21;7.00;;;3.63;;
19804;SDS011;10062;51.052;13.756;2023-02-27T06:20:54;5.57;;;2.83;;
19804;SDS011;10062;51.052;13.756;2023-02-27T06:23:26;8.30;;;3.50;;
19804;SDS011;10062;51.052;13.756;2023-02-27T06:25:58;6.10;;;3.07;;
19804;SDS011;10062;51.052;13.756;2023-02-27T06:28:29;7.20;;;3.37;;
19804;SDS011;10062;51.052;13.756;2023-02-27T06:31:01;7.33;;;2.90;;
19804;SDS011;10062;51.052;13.756;2023-02-27T06:33:33;11.47;;;3.73;;
19804;SDS011;10062;51.052;13.756;2023-02-27T06:36:06;8.77;;;2.70;;
19804;SDS011;10062;51.052;13.756;2023-02-27T06:38:38;6.73;;;3.13;;
19804;SDS011;10062;51.052;13.756;2023-02-27T06:41:10;7.73;;;3.30;;
19804;SDS011;10062;51.052;13.756;2023-02-27T06:43:41;10.03;;;3.50;;
19804;SDS011;10062;51.052;13.756;2023-02-27T06:46:13;6.60;;;3.60;;
19804;SDS011;10062;51.052;13.756;2023-02-27T06:48:45;5.73;;;3.30;;
19804;SDS011;10062;51.052;13.756;2023-02-27T06:51:18;6.43;;;3.30;;
19804;SDS011;10062;51.052;13.756;2023-02-27T06:53:49;7.50;;;3.30;;
19804;SDS011;10062;51.052;13.756;2023-02-27T06:56:21;9.23;;;3.80;;
19804;SDS011;10062;51.052;13.756;2023-02-27T06:58:53;7.97;;;3.47;;
19804;SDS011;10062;51.052;13.756;2023-02-27T07:01:24;10.13;;;3.77;;
19804;SDS011;10062;51.052;13.756;2023-02-27T07:03:56;7.43;;;3.60;;
19804;SDS011;10062;51.052;13.756;2023-02-27T07:06:31;11.67;;;3.50;;
19804;SDS011;10062;51.052;13.756;2023-02-27T07:09:02;10.13;;;3.80;;
19804;SDS011;10062;51.052;13.756;2023-02-27T07:11:34;8.17;;;3.77;;
19804;SDS011;10062;51.052;13.756;2023-02-27T07:14:06;7.17;;;3.63;;
19804;SDS011;10062;51.052;13.756;2023-02-27T07:16:37;6.53;;;3.30;;
19804;SDS011;10062;51.052;13.756;2023-02-27T07:19:09;6.37;;;3.13;;
19804;SDS011;10062;51.052;13.756;2023-02-27T07:21:42;8.07;;;3.97;;
19804;SDS011;10062;51.052;13.756;2023-02-27T07:24:14;6.40;;;3.40;;
19804;SDS011;10062;51.052;13.756;2023-02-27T07:26:46;12.57;;;6.80;;
19804;SDS011;10062;51.052;13.756;2023-02-27T07:29:18;13.07;;;6.97;;
19804;SDS011;10062;51.052;13.756;2023-02-27T07:31:49;16.43;;;9.40;;
19804;SDS011;10062;51.052;13.756;2023-02-27T07:34:21;9.63;;;4.50;;
19804;SDS011;10062;51.052;13.756;2023-02-27T07:36:54;8.40;;;3.10;;
19804;SDS011;10062;51.052;13.756;2023-02-27T07:39:26;22.57;;;9.50;;
19804;SDS011;10062;51.052;13.756;2023-02-27T07:41:57;10.47;;;5.37;;
19804;SDS011;10062;51.052;13.756;2023-02-27T07:44:30;37.67;;;16.80;;
19804;SDS011;10062;51.052;13.756;2023-02-27T07:47:01;10.13;;;3.60;;
19804;SDS011;10062;51.052;13.756;2023-02-27T07:49:33;7.90;;;3.40;;
19804;SDS011;10062;51.052;13.756;2023-02-27T07:52:06;9.03;;;3.43;;
19804;SDS011;10062;51.052;13.756;2023-02-27T07:54:38;6.30;;;3.20;;
19804;SDS011;10062;51.052;13.756;2023-02-27T07:57:09;5.67;;;3.07;;
19804;SDS011;10062;51.052;13.756;2023-02-27T07:59:41;8.73;;;3.00;;
19804;SDS011;10062;51.052;13.756;2023-02-27T08:02:13;8.47;;;3.20;;
19804;SDS011;10062;51.052;13.756;2023-02-27T08:04:44;7.43;;;2.83;;
19804;SDS011;10062;51.052;13.756;2023-02-27T08:07:17;5.67;;;3.20;;
19804;SDS011;10062;51.052;13.756;2023-02-27T08:09:49;6.73;;;3.40;;
19804;SDS011;10062;51.052;13.756;2023-02-27T08:12:20;6.77;;;3.47;;
19804;SDS011;10062;51.052;13.756;2023-02-27T08:14:52;8.53;;;3.93;;
19804;SDS011;10062;51.052;13.756;2023-02-27T08:17:24;9.60;;;3.43;;
19804;SDS011;10062;51.052;13.756;2023-02-27T08:19:55;7.57;;;4.10;;
19804;SDS011;10062;51.052;13.756;2023-02-27T08:22:28;10.73;;;4.60;;
19804;SDS011;10062;51.052;13.756;2023-02-27T08:25:01;7.67;;;3.90;;
19804;SDS011;10062;51.052;13.756;2023-02-27T08:27:35;8.17;;;3.57;;
19804;SDS011;10062;51.052;13.756;2023-02-27T08:30:07;6.80;;;2.77;;
19804;SDS011;10062;51.052;13.756;2023-02-27T08:32:41;5.57;;;3.33;;
19804;SDS011;10062;51.052;13.756;2023-02-27T08:35:13;6.43;;;3.47;;
19804;SDS011;10062;51.052;13.756;2023-02-27T08:37:46;8.90;;;4.17;;
19804;SDS011;10062;51.052;13.756;2023-02-27T08:40:19;10.87;;;4.43;;
19804;SDS011;10062;51.052;13.756;2023-02-27T08:42:50;10.70;;;4.20;;
19804;SDS011;10062;51.052;13.756;2023-02-27T08:45:22;6.73;;;3.47;;
19804;SDS011;10062;51.052;13.756;2023-02-27T08:47:54;16.27;;;3.70;;
19804;SDS011;10062;51.052;13.756;2023-02-27T08:50:25;8.90;;;3.70;;
19804;SDS011;10062;51.052;13.756;2023-02-27T08:52:58;12.17;;;4.07;;
19804;SDS011;10062;51.052;13.756;2023-02-27T08:55:30;11.00;;;3.70;;
19804;SDS011;10062;51.052;13.756;2023-02-27T08:58:01;10.57;;;4.10;;
19804;SDS011;10062;51.052;13.756;2023-02-27T09:00:33;8.00;;;4.40;;
19804;SDS011;10062;51.052;13.756;2023-02-27T09:03:05;6.70;;;3.17;;
19804;SDS011;10062;51.052;13.756;2023-02-27T09:05:37;8.07;;;4.10;;
19804;SDS011;10062;51.052;13.756;2023-02-27T09:08:10;8.63;;;3.77;;
19804;SDS011;10062;51.052;13.756;2023-02-27T09:10:41;7.00;;;3.63;;
19804;SDS011;10062;51.052;13.756;2023-02-27T09:13:13;7.53;;;4.03;;
19804;SDS011;10062;51.052;13.756;2023-02-27T09:15:45;9.87;;;3.93;;
19804;SDS011;10062;51.052;13.756;2023-02-27T09:18:17;8.90;;;3.53;;
19804;SDS011;10062;51.052;13.756;2023-02-27T09:20:52;8.20;;;4.03;;
19804;SDS011;10062;51.052;13.756;2023-02-27T09:23:26;9.53;;;4.63;;
19804;SDS011;10062;51.052;13.756;2023-02-27T09:25:58;9.07;;;3.77;;
19804;SDS011;10062;51.052;13.756;2023-02-27T09:28:30;7.90;;;3.90;;
19804;SDS011;10062;51.052;13.756;2023-02-27T09:31:01;7.90;;;3.73;;
19804;SDS011;10062;51.052;13.756;2023-02-27T09:33:34;9.03;;;3.70;;
19804;SDS011;10062;51.052;13.756;2023-02-27T09:36:07;8.90;;;4.20;;
19804;SDS011;10062;51.052;13.756;2023-02-27T09:38:41;7.40;;;4.27;;
19804;SDS011;10062;51.052;13.756;2023-02-27T09:41:22;8.97;;;3.57;;
19804;SDS011;10062;51.052;13.756;2023-02-27T09:44:13;10.00;;;3.17;;
19804;SDS011;10062;51.052;13.756;2023-02-27T09:46:49;6.47;;;3.23;;
19804;SDS011;10062;51.052;13.756;2023-02-27T09:49:23;8.30;;;3.73;;
19804;SDS011;10062;51.052;13.756;2023-02-27T09:52:02;6.80;;;2.97;;
19804;SDS011;10062;51.052;13.756;2023-02-27T09:54:35;5.63;;;2.73;;
19804;SDS011;10062;51.052;13.756;2023-02-27T09:57:10;8.13;;;3.57;;
19804;SDS011;10062;51.052;13.756;2023-02-27T09:59:48;7.17;;;3.33;;
19804;SDS011;10062;51.052;13.756;2023-02-27T10:02:33;8.43;;;3.67;;
19804;SDS011;10062;51.052;13.756;2023-02-27T10:05:16;8.17;;;3.50;;
19804;SDS011;10062;51.052;13.756;2023-02-27T10:07:57;5.83;;;3.13;;
19804;SDS011;10062;51.052;13.756;2023-02-27T10:10:36;5.80;;;2.97;;
19804;SDS011;10062;51.052;13.756;2023-02-27T10:13:23;6.43;;;2.80;;
19804;SDS011;10062;51.052;13.756;2023-02-27T10:16:02;6.43;;;3.33;;
19804;SDS011;10062;51.052;13.756;2023-02-27T10:18:44;9.43;;;3.37;;
19804;SDS011;10062;51.052;13.756;2023-02-27T10:21:21;6.67;;;2.47;;
19804;SDS011;10062;51.052;13.756;2023-02-27T10:23:58;6.20;;;2.33;;
19804;SDS011;10062;51.052;13.756;2023-02-27T10:26:38;5.57;;;2.23;;
19804;SDS011;10062;51.052;13.756;2023-02-27T10:29:15;6.07;;;2.30;;
19804;SDS011;10062;51.052;13.756;2023-02-27T10:31:52;5.83;;;2.50;;
19804;SDS011;10062;51.052;13.756;2023-02-27T10:34:28;9.33;;;2.07;;
19804;SDS011;10062;51.052;13.756;2023-02-27T10:37:02;4.83;;;1.90;;
19804;SDS011;10062;51.052;13.756;2023-02-27T10:39:39;4.40;;;1.53;;
19804;SDS011;10062;51.052;13.756;2023-02-27T10:42:17;3.27;;;1.40;;
19804;SDS011;10062;51.052;13.756;2023-02-27T10:44:49;3.43;;;1.90;;
19804;SDS011;10062;51.052;13.756;2023-02-27T10:47:23;3.00;;;1.53;;
19804;SDS011;10062;51.052;13.756;2023-02-27T10:49:55;3.83;;;1.50;;
19804;SDS011;10062;51.052;13.756;2023-02-27T10:52:29;4.13;;;1.57;;
19804;SDS011;10062;51.052;13.756;2023-02-27T10:55:15;5.03;;;2.20;;
19804;SDS011;10062;51.052;13.756;2023-02-27T10:57:49;4.03;;;2.10;;
19804;SDS011;10062;51.052;13.756;2023-02-27T11:00:23;5.63;;;2.53;;
19804;SDS011;10062;51.052;13.756;2023-02-27T11:02:58;6.07;;;2.77;;
19804;SDS011;10062;51.052;13.756;2023-02-27T11:05:30;5.87;;;2.80;;
19804;SDS011;10062;51.052;13.756;2023-02-27T11:08:10;6.23;;;2.97;;
19804;SDS011;10062;51.052;13.756;2023-02-27T11:10:51;7.23;;;3.00;;
19804;SDS011;10062;51.052;13.756;2023-02-27T11:13:32;6.13;;;2.60;;
19804;SDS011;10062;51.052;13.756;2023-02-27T11:16:07;6.10;;;3.23;;
19804;SDS011;10062;51.052;13.756;2023-02-27T11:18:41;10.40;;;3.57;;
19804;SDS011;10062;51.052;13.756;2023-02-27T11:21:16;6.30;;;2.90;;
19804;SDS011;10062;51.052;13.756;2023-02-27T11:23:51;4.70;;;2.60;;
19804;SDS011;10062;51.052;13.756;2023-02-27T11:26:29;7.47;;;3.17;;
19804;SDS011;10062;51.052;13.756;2023-02-27T11:29:05;7.03;;;2.60;;
19804;SDS011;10062;51.052;13.756;2023-02-27T11:31:45;6.33;;;2.77;;
19804;SDS011;10062;51.052;13.756;2023-02-27T11:34:21;5.93;;;2.40;;
19804;SDS011;10062;51.052;13.756;2023-02-27T11:37:01;7.03;;;2.70;;
19804;SDS011;10062;51.052;13.756;2023-02-27T11:39:36;5.90;;;2.70;;
19804;SDS011;10062;51.052;13.756;2023-02-27T11:42:12;12.23;;;2.80;;
19804;SDS011;10062;51.052;13.756;2023-02-27T11:44:51;8.80;;;2.80;;
19804;SDS011;10062;51.052;13.756;2023-02-27T11:47:26;8.23;;;2.67;;
19804;SDS011;10062;51.052;13.756;2023-02-27T11:50:08;4.93;;;2.30;;
19804;SDS011;10062;51.052;13.756;2023-02-27T11:52:55;4.83;;;2.10;;
19804;SDS011;10062;51.052;13.756;2023-02-27T11:55:33;6.07;;;2.63;;
19804;SDS011;10062;51.052;13.756;2023-02-27T11:58:08;6.17;;;2.60;;
19804;SDS011;10062;51.052;13.756;2023-02-27T12:00:46;4.03;;;2.43;;
19804;SDS011;10062;51.052;13.756;2023-02-27T12:03:22;7.30;;;2.70;;
19804;SDS011;10062;51.052;13.756;2023-02-27T12:06:02;12.50;;;2.33;;
19804;SDS011;10062;51.052;13.756;2023-02-27T12:08:37;4.00;;;2.23;;
19804;SDS011;10062;51.052;13.756;2023-02-27T12:11:12;3.40;;;1.90;;
19804;SDS011;10062;51.052;13.756;2023-02-27T12:13:52;5.33;;;2.50;;
19804;SDS011;10062;51.052;13.756;2023-02-27T12:16:30;9.17;;;3.77;;
19804;SDS011;10062;51.052;13.756;2023-02-27T12:19:09;8.90;;;2.70;;
19804;SDS011;10062;51.052;13.756;2023-02-27T12:21:47;4.80;;;2.20;;
19804;SDS011;10062;51.052;13.756;2023-02-27T12:24:23;8.00;;;2.07;;
19804;SDS011;10062;51.052;13.756;2023-02-27T12:26:59;3.97;;;2.10;;
19804;SDS011;10062;51.052;13.756;2023-02-27T12:29:52;5.43;;;1.80;;
19804;SDS011;10062;51.052;13.756;2023-02-27T12:32:30;6.20;;;2.10;;
19804;SDS011;10062;51.052;13.756;2023-02-27T12:35:10;6.70;;;2.13;;
19804;SDS011;10062;51.052;13.756;2023-02-27T12:37:46;4.33;;;1.70;;
19804;SDS011;10062;51.052;13.756;2023-02-27T12:40:19;4.03;;;1.83;;
19804;SDS011;10062;51.052;13.756;2023-02-27T12:43:00;3.50;;;1.77;;
19804;SDS011;10062;51.052;13.756;2023-02-27T12:45:48;4.13;;;1.70;;
19804;SDS011;10062;51.052;13.756;2023-02-27T12:48:33;4.67;;;1.30;;
19804;SDS011;10062;51.052;13.756;2023-02-27T12:51:20;3.67;;;1.30;;
19804;SDS011;10062;51.052;13.756;2023-02-27T12:54:07;3.00;;;1.50;;
19804;SDS011;10062;51.052;13.756;2023-02-27T12:56:49;2.60;;;1.50;;
19804;SDS011;10062;51.052;13.756;2023-02-27T12:59:34;3.40;;;1.40;;
19804;SDS011;10062;51.052;13.756;2023-02-27T13:02:23;4.40;;;2.00;;
19804;SDS011;10062;51.052;13.756;2023-02-27T13:05:11;5.10;;;1.77;;
19804;SDS011;10062;51.052;13.756;2023-02-27T13:07:56;3.37;;;1.63;;
19804;SDS011;10062;51.052;13.756;2023-02-27T13:10:35;3.80;;;1.30;;
19804;SDS011;10062;51.052;13.756;2023-02-27T13:13:15;4.47;;;1.10;;
19804;SDS011;10062;51.052;13.756;2023-02-27T13:15:53;3.37;;;1.20;;
19804;SDS011;10062;51.052;13.756;2023-02-27T13:18:31;2.37;;;1.37;;
19804;SDS011;10062;51.052;13.756;2023-02-27T13:21:12;5.77;;;2.63;;
19804;SDS011;10062;51.052;13.756;2023-02-27T13:23:52;3.97;;;1.40;;
19804;SDS011;10062;51.052;13.756;2023-02-27T13:26:33;2.23;;;1.10;;
19804;SDS011;10062;51.052;13.756;2023-02-27T13:29:09;6.30;;;1.70;;
19804;SDS011;10062;51.052;13.756;2023-02-27T13:31:46;3.37;;;1.27;;
19804;SDS011;10062;51.052;13.756;2023-02-27T13:34:25;3.37;;;1.63;;
19804;SDS011;10062;51.052;13.756;2023-02-27T13:37:05;3.27;;;1.10;;
19804;SDS011;10062;51.052;13.756;2023-02-27T13:39:40;3.07;;;1.50;;
19804;SDS011;10062;51.052;13.756;2023-02-27T13:48:35;3.03;;;1.23;;
19804;SDS011;10062;51.052;13.756;2023-02-27T13:54:23;2.60;;;1.00;;
19804;SDS011;10062;51.052;13.756;2023-02-27T13:57:14;4.37;;;1.30;;
19804;SDS011;10062;51.052;13.756;2023-02-27T14:00:01;4.47;;;1.37;;
19804;SDS011;10062;51.052;13.756;2023-02-27T14:02:49;2.83;;;1.10;;
19804;SDS011;10062;51.052;13.756;2023-02-27T14:05:27;4.77;;;1.73;;
19804;SDS011;10062;51.052;13.756;2023-02-27T14:08:05;2.90;;;0.87;;
19804;SDS011;10062;51.052;13.756;2023-02-27T14:10:49;8.07;;;3.40;;
19804;SDS011;10062;51.052;13.756;2023-02-27T14:16:51;2.73;;;0.90;;
19804;SDS011;10062;51.052;13.756;2023-02-27T14:22:31;5.10;;;0.70;;
19804;SDS011;10062;51.052;13.756;2023-02-27T14:25:17;1.47;;;0.60;;
19804;SDS011;10062;51.052;13.756;2023-02-27T14:27:55;0.90;;;0.60;;
19804;SDS011;10062;51.052;13.756;2023-02-27T14:30:32;0.40;;;0.40;;
19804;SDS011;10062;51.052;13.756;2023-02-27T14:33:12;1.03;;;0.70;;
19804;SDS011;10062;51.052;13.756;2023-02-27T14:35:50;1.37;;;0.63;;
19804;SDS011;10062;51.052;13.756;2023-02-27T14:38:27;3.03;;;0.80;;
19804;SDS011;10062;51.052;13.756;2023-02-27T14:41:04;1.10;;;0.70;;
19804;SDS011;10062;51.052;13.756;2023-02-27T14:43:46;1.30;;;0.60;;
19804;SDS011;10062;51.052;13.756;2023-02-27T14:46:25;1.60;;;0.50;;
19804;SDS011;10062;51.052;13.756;2023-02-27T14:49:00;1.60;;;0.90;;
19804;SDS011;10062;51.052;13.756;2023-02-27T14:51:33;0.93;;;0.50;;
19804;SDS011;10062;51.052;13.756;2023-02-27T14:54:11;3.33;;;0.90;;
19804;SDS011;10062;51.052;13.756;2023-02-27T14:56:51;1.37;;;0.60;;
19804;SDS011;10062;51.052;13.756;2023-02-27T14:59:26;1.77;;;0.60;;
19804;SDS011;10062;51.052;13.756;2023-02-27T15:02:00;0.80;;;0.60;;
19804;SDS011;10062;51.052;13.756;2023-02-27T15:04:33;2.13;;;1.03;;
19804;SDS011;10062;51.052;13.756;2023-02-27T15:07:05;1.20;;;0.70;;
19804;SDS011;10062;51.052;13.756;2023-02-27T15:09:48;3.80;;;0.87;;
19804;SDS011;10062;51.052;13.756;2023-02-27T15:12:21;5.43;;;0.63;;
19804;SDS011;10062;51.052;13.756;2023-02-27T15:14:56;1.40;;;0.80;;
19804;SDS011;10062;51.052;13.756;2023-02-27T15:17:35;1.90;;;0.80;;
19804;SDS011;10062;51.052;13.756;2023-02-27T15:20:20;3.73;;;0.87;;
19804;SDS011;10062;51.052;13.756;2023-02-27T15:22:54;1.20;;;0.80;;
19804;SDS011;10062;51.052;13.756;2023-02-27T15:25:27;4.93;;;2.13;;
19804;SDS011;10062;51.052;13.756;2023-02-27T15:28:01;0.47;;;0.47;;
19804;SDS011;10062;51.052;13.756;2023-02-27T15:30:36;2.97;;;1.30;;
19804;SDS011;10062;51.052;13.756;2023-02-27T15:33:09;1.40;;;0.70;;
19804;SDS011;10062;51.052;13.756;2023-02-27T15:35:45;2.03;;;1.03;;
19804;SDS011;10062;51.052;13.756;2023-02-27T15:38:24;2.73;;;1.37;;
19804;SDS011;10062;51.052;13.756;2023-02-27T15:40:57;3.50;;;1.13;;
19804;SDS011;10062;51.052;13.756;2023-02-27T15:43:30;1.90;;;1.03;;
19804;SDS011;10062;51.052;13.756;2023-02-27T15:46:03;1.57;;;1.03;;
19804;SDS011;10062;51.052;13.756;2023-02-27T15:48:35;2.33;;;0.90;;
19804;SDS011;10062;51.052;13.756;2023-02-27T15:51:07;3.73;;;1.00;;
19804;SDS011;10062;51.052;13.756;2023-02-27T15:53:39;2.67;;;1.37;;
19804;SDS011;10062;51.052;13.756;2023-02-27T15:56:18;1.53;;;0.90;;
19804;SDS011;10062;51.052;13.756;2023-02-27T15:58:54;1.60;;;1.17;;